sensor_id;sensor_type;location;lat;lon;timestamp;pressure;altitude;pressure_sealevel;temperature;humidity
34124;BME280;13153;52.316;21.166;2023-01-30T00:00:31;100073.38;;;5.89;62.77
34124;BME280;13153;52.316;21.166;2023-01-30T00:02:57;100069.66;;;5.84;62.54
34124;BME280;13153;52.316;21.166;2023-01-30T00:05:23;100067.34;;;5.90;62.69
34124;BME280;13153;52.316;21.166;2023-01-30T00:07:49;100061.13;;;5.88;62.26
34124;BME280;13153;52.316;21.166;2023-01-30T00:10:15;100050.84;;;5.91;62.41
34124;BME280;13153;52.316;21.166;2023-01-30T00:12:41;100054.53;;;5.96;62.50
34124;BME280;13153;52.316;21.166;2023-01-30T00:15:07;100042.38;;;5.97;62.44
34124;BME280;13153;52.316;21.166;2023-01-30T00:17:33;100038.03;;;5.97;62.30
34124;BME280;13153;52.316;21.166;2023-01-30T00:19:59;100037.06;;;5.95;62.11
34124;BME280;13153;52.316;21.166;2023-01-30T00:22:25;100030.38;;;6.02;62.39
34124;BME280;13153;52.316;21.166;2023-01-30T00:24:51;100018.22;;;6.03;62.41
34124;BME280;13153;52.316;21.166;2023-01-30T00:27:17;100014.06;;;6.08;62.16
34124;BME280;13153;52.316;21.166;2023-01-30T00:29:43;100006.22;;;6.08;62.04
34124;BME280;13153;52.316;21.166;2023-01-30T00:32:08;100005.97;;;6.02;62.47
34124;BME280;13153;52.316;21.166;2023-01-30T00:34:34;100002.19;;;5.93;62.61
34124;BME280;13153;52.316;21.166;2023-01-30T00:37:00;100001.09;;;5.88;62.52
34124;BME280;13153;52.316;21.166;2023-01-30T00:39:26;99986.41;;;5.90;62.87
34124;BME280;13153;52.316;21.166;2023-01-30T00:41:52;99991.75;;;5.93;62.68
34124;BME280;13153;52.316;21.166;2023-01-30T00:44:36;99979.53;;;5.92;62.73
34124;BME280;13153;52.316;21.166;2023-01-30T00:47:21;99968.19;;;5.92;62.54
34124;BME280;13153;52.316;21.166;2023-01-30T00:49:47;99957.41;;;5.84;62.85
34124;BME280;13153;52.316;21.166;2023-01-30T00:52:13;99961.69;;;5.82;63.16
34124;BME280;13153;52.316;21.166;2023-01-30T00:54:38;99956.63;;;5.87;62.71
34124;BME280;13153;52.316;21.166;2023-01-30T00:57:04;99953.97;;;5.85;62.51
34124;BME280;13153;52.316;21.166;2023-01-30T00:59:30;99942.53;;;5.82;62.86
34124;BME280;13153;52.316;21.166;2023-01-30T01:01:56;99935.56;;;5.82;62.99
34124;BME280;13153;52.316;21.166;2023-01-30T01:04:22;99926.09;;;5.84;63.49
34124;BME280;13153;52.316;21.166;2023-01-30T01:06:47;99927.31;;;5.92;63.24
34124;BME280;13153;52.316;21.166;2023-01-30T01:09:13;99921.25;;;5.93;63.02
34124;BME280;13153;52.316;21.166;2023-01-30T01:11:39;99902.84;;;5.90;62.81
34124;BME280;13153;52.316;21.166;2023-01-30T01:14:05;99907.25;;;5.91;62.71
34124;BME280;13153;52.316;21.166;2023-01-30T01:16:34;99898.47;;;5.89;62.80
34124;BME280;13153;52.316;21.166;2023-01-30T01:19:00;99892.53;;;5.93;62.66
34124;BME280;13153;52.316;21.166;2023-01-30T01:21:26;99882.03;;;5.92;62.76
34124;BME280;13153;52.316;21.166;2023-01-30T01:23:56;99868.19;;;5.94;62.68
34124;BME280;13153;52.316;21.166;2023-01-30T01:26:23;99862.81;;;5.90;62.75
34124;BME280;13153;52.316;21.166;2023-01-30T01:28:53;99849.53;;;5.85;62.79
34124;BME280;13153;52.316;21.166;2023-01-30T01:31:19;99848.91;;;5.91;62.88
34124;BME280;13153;52.316;21.166;2023-01-30T01:33:45;99840.19;;;5.90;62.83
34124;BME280;13153;52.316;21.166;2023-01-30T01:36:11;99842.75;;;5.89;62.60
34124;BME280;13153;52.316;21.166;2023-01-30T01:38:37;99831.38;;;5.88;63.09
34124;BME280;13153;52.316;21.166;2023-01-30T01:41:03;99820.16;;;5.89;62.63
34124;BME280;13153;52.316;21.166;2023-01-30T01:43:58;99823.56;;;5.88;62.39
34124;BME280;13153;52.316;21.166;2023-01-30T01:46:31;99807.88;;;5.88;62.36
34124;BME280;13153;52.316;21.166;2023-01-30T01:49:02;99808.97;;;5.93;62.40
34124;BME280;13153;52.316;21.166;2023-01-30T01:51:49;99795.03;;;5.93;62.11
34124;BME280;13153;52.316;21.166;2023-01-30T01:57:11;99787.00;;;5.88;62.40
34124;BME280;13153;52.316;21.166;2023-01-30T01:59:49;99775.88;;;5.92;61.94
34124;BME280;13153;52.316;21.166;2023-01-30T02:02:18;99780.25;;;5.93;61.96
34124;BME280;13153;52.316;21.166;2023-01-30T02:04:48;99774.31;;;5.97;62.07
34124;BME280;13153;52.316;21.166;2023-01-30T02:10:13;99773.47;;;5.99;61.48
34124;BME280;13153;52.316;21.166;2023-01-30T02:12:40;99769.09;;;5.97;61.29
34124;BME280;13153;52.316;21.166;2023-01-30T02:15:07;99763.13;;;6.02;61.79
34124;BME280;13153;52.316;21.166;2023-01-30T02:17:33;99750.91;;;6.01;61.83
34124;BME280;13153;52.316;21.166;2023-01-30T02:20:29;99746.63;;;6.03;61.68
34124;BME280;13153;52.316;21.166;2023-01-30T02:26:46;99741.31;;;6.00;61.14
34124;BME280;13153;52.316;21.166;2023-01-30T02:32:51;99736.97;;;6.00;61.10
34124;BME280;13153;52.316;21.166;2023-01-30T02:39:01;99728.47;;;6.06;60.98
34124;BME280;13153;52.316;21.166;2023-01-30T02:47:28;99710.38;;;6.12;60.72
34124;BME280;13153;52.316;21.166;2023-01-30T02:50:43;99704.72;;;5.98;60.62
34124;BME280;13153;52.316;21.166;2023-01-30T02:53:11;99688.31;;;6.02;60.65
34124;BME280;13153;52.316;21.166;2023-01-30T02:55:40;99686.44;;;5.98;60.41
34124;BME280;13153;52.316;21.166;2023-01-30T02:58:08;99679.59;;;6.02;60.46
34124;BME280;13153;52.316;21.166;2023-01-30T03:01:00;99687.53;;;6.05;60.59
34124;BME280;13153;52.316;21.166;2023-01-30T03:04:02;99681.41;;;6.04;59.99
34124;BME280;13153;52.316;21.166;2023-01-30T03:06:46;99669.03;;;5.99;60.35
34124;BME280;13153;52.316;21.166;2023-01-30T03:12:25;99664.56;;;5.94;60.23
34124;BME280;13153;52.316;21.166;2023-01-30T03:15:04;99657.75;;;6.00;59.83
34124;BME280;13153;52.316;21.166;2023-01-30T03:17:35;99646.56;;;6.04;59.61
34124;BME280;13153;52.316;21.166;2023-01-30T03:20:03;99642.94;;;5.99;59.74
34124;BME280;13153;52.316;21.166;2023-01-30T03:22:29;99631.34;;;5.90;59.69
34124;BME280;13153;52.316;21.166;2023-01-30T03:24:54;99628.00;;;5.94;59.27
34124;BME280;13153;52.316;21.166;2023-01-30T03:27:21;99609.88;;;5.99;59.00
34124;BME280;13153;52.316;21.166;2023-01-30T03:29:47;99597.50;;;5.93;59.13
34124;BME280;13153;52.316;21.166;2023-01-30T03:32:13;99592.44;;;5.98;59.11
34124;BME280;13153;52.316;21.166;2023-01-30T03:34:39;99589.03;;;6.01;59.50
34124;BME280;13153;52.316;21.166;2023-01-30T03:37:05;99579.63;;;6.06;58.91
34124;BME280;13153;52.316;21.166;2023-01-30T03:39:31;99569.72;;;5.95;58.71
34124;BME280;13153;52.316;21.166;2023-01-30T03:41:56;99565.25;;;5.91;58.70
34124;BME280;13153;52.316;21.166;2023-01-30T03:44:22;99563.28;;;5.86;59.22
34124;BME280;13153;52.316;21.166;2023-01-30T03:46:48;99560.03;;;5.91;59.00
34124;BME280;13153;52.316;21.166;2023-01-30T03:49:14;99563.81;;;5.74;59.19
34124;BME280;13153;52.316;21.166;2023-01-30T03:51:40;99556.47;;;5.89;59.12
34124;BME280;13153;52.316;21.166;2023-01-30T03:54:05;99552.91;;;5.87;59.11
34124;BME280;13153;52.316;21.166;2023-01-30T03:56:31;99553.91;;;5.91;59.09
34124;BME280;13153;52.316;21.166;2023-01-30T03:58:57;99556.47;;;5.89;59.29
34124;BME280;13153;52.316;21.166;2023-01-30T04:01:23;99555.31;;;5.81;59.51
34124;BME280;13153;52.316;21.166;2023-01-30T04:03:49;99539.66;;;5.81;59.57
34124;BME280;13153;52.316;21.166;2023-01-30T04:06:14;99537.66;;;5.73;59.98
34124;BME280;13153;52.316;21.166;2023-01-30T04:08:40;99532.34;;;5.70;60.06
34124;BME280;13153;52.316;21.166;2023-01-30T04:11:06;99516.16;;;5.81;60.29
34124;BME280;13153;52.316;21.166;2023-01-30T04:13:32;99518.66;;;5.78;60.25
34124;BME280;13153;52.316;21.166;2023-01-30T04:16:23;99506.59;;;5.82;60.30
34124;BME280;13153;52.316;21.166;2023-01-30T04:18:50;99504.78;;;5.79;60.43
34124;BME280;13153;52.316;21.166;2023-01-30T04:21:16;99501.78;;;5.66;60.21
34124;BME280;13153;52.316;21.166;2023-01-30T04:23:42;99494.94;;;5.69;60.60
34124;BME280;13153;52.316;21.166;2023-01-30T04:26:09;99491.97;;;5.58;61.01
34124;BME280;13153;52.316;21.166;2023-01-30T04:28:35;99479.03;;;5.61;60.32
34124;BME280;13153;52.316;21.166;2023-01-30T04:31:02;99467.91;;;5.67;60.46
34124;BME280;13153;52.316;21.166;2023-01-30T04:33:28;99459.69;;;5.55;60.83
34124;BME280;13153;52.316;21.166;2023-01-30T04:35:58;99452.00;;;5.59;60.43
34124;BME280;13153;52.316;21.166;2023-01-30T04:38:26;99450.03;;;5.52;60.85
34124;BME280;13153;52.316;21.166;2023-01-30T04:40:54;99444.97;;;5.57;60.80
34124;BME280;13153;52.316;21.166;2023-01-30T04:43:23;99440.28;;;5.47;60.92
34124;BME280;13153;52.316;21.166;2023-01-30T04:45:50;99434.94;;;5.42;60.93
34124;BME280;13153;52.316;21.166;2023-01-30T04:48:18;99438.56;;;5.47;60.95
34124;BME280;13153;52.316;21.166;2023-01-30T04:50:47;99428.13;;;5.47;60.38
34124;BME280;13153;52.316;21.166;2023-01-30T04:53:15;99422.97;;;5.22;61.08
34124;BME280;13153;52.316;21.166;2023-01-30T04:55:40;99419.94;;;5.35;60.23
34124;BME280;13153;52.316;21.166;2023-01-30T04:58:06;99414.13;;;5.44;60.58
34124;BME280;13153;52.316;21.166;2023-01-30T05:00:32;99420.03;;;5.38;60.26
34124;BME280;13153;52.316;21.166;2023-01-30T05:02:58;99420.47;;;5.52;60.01
34124;BME280;13153;52.316;21.166;2023-01-30T05:05:26;99409.69;;;5.41;59.81
34124;BME280;13153;52.316;21.166;2023-01-30T05:07:52;99410.81;;;5.49;59.86
34124;BME280;13153;52.316;21.166;2023-01-30T05:10:20;99400.44;;;5.51;59.88
34124;BME280;13153;52.316;21.166;2023-01-30T05:12:46;99387.75;;;5.35;60.23
34124;BME280;13153;52.316;21.166;2023-01-30T05:15:13;99397.59;;;5.43;59.83
34124;BME280;13153;52.316;21.166;2023-01-30T05:17:39;99391.09;;;5.30;60.76
34124;BME280;13153;52.316;21.166;2023-01-30T05:20:08;99371.50;;;5.43;60.13
34124;BME280;13153;52.316;21.166;2023-01-30T05:22:34;99368.09;;;5.17;60.56
34124;BME280;13153;52.316;21.166;2023-01-30T05:25:00;99352.13;;;5.35;59.86
34124;BME280;13153;52.316;21.166;2023-01-30T05:27:26;99358.31;;;5.39;59.74
34124;BME280;13153;52.316;21.166;2023-01-30T05:29:52;99346.16;;;5.39;60.02
34124;BME280;13153;52.316;21.166;2023-01-30T05:32:19;99339.88;;;5.32;59.94
34124;BME280;13153;52.316;21.166;2023-01-30T05:34:45;99343.31;;;5.31;59.82
34124;BME280;13153;52.316;21.166;2023-01-30T05:37:11;99325.16;;;5.35;59.94
34124;BME280;13153;52.316;21.166;2023-01-30T05:39:37;99328.16;;;5.18;60.26
34124;BME280;13153;52.316;21.166;2023-01-30T05:42:04;99338.06;;;5.30;60.13
34124;BME280;13153;52.316;21.166;2023-01-30T05:44:30;99319.19;;;5.39;59.73
34124;BME280;13153;52.316;21.166;2023-01-30T05:46:56;99327.06;;;5.40;59.76
34124;BME280;13153;52.316;21.166;2023-01-30T05:49:22;99320.88;;;5.37;59.78
34124;BME280;13153;52.316;21.166;2023-01-30T05:51:48;99323.38;;;5.34;59.63
34124;BME280;13153;52.316;21.166;2023-01-30T05:54:14;99321.78;;;5.39;59.39
34124;BME280;13153;52.316;21.166;2023-01-30T05:56:40;99306.94;;;5.36;59.52
34124;BME280;13153;52.316;21.166;2023-01-30T05:59:10;99308.63;;;5.34;59.36
34124;BME280;13153;52.316;21.166;2023-01-30T06:01:36;99311.47;;;5.42;59.12
34124;BME280;13153;52.316;21.166;2023-01-30T06:04:02;99307.56;;;5.27;59.32
34124;BME280;13153;52.316;21.166;2023-01-30T06:06:28;99301.88;;;5.41;59.27
34124;BME280;13153;52.316;21.166;2023-01-30T06:08:55;99297.50;;;5.40;58.93
34124;BME280;13153;52.316;21.166;2023-01-30T06:11:22;99300.13;;;5.41;58.83
34124;BME280;13153;52.316;21.166;2023-01-30T06:13:48;99282.16;;;5.50;58.98
34124;BME280;13153;52.316;21.166;2023-01-30T06:16:16;99270.84;;;5.50;58.84
34124;BME280;13153;52.316;21.166;2023-01-30T06:18:43;99271.66;;;5.49;58.49
34124;BME280;13153;52.316;21.166;2023-01-30T06:21:13;99266.47;;;5.49;58.57
34124;BME280;13153;52.316;21.166;2023-01-30T06:23:41;99256.81;;;5.46;58.21
34124;BME280;13153;52.316;21.166;2023-01-30T06:26:07;99254.38;;;5.52;58.44
34124;BME280;13153;52.316;21.166;2023-01-30T06:28:33;99263.94;;;5.52;58.22
34124;BME280;13153;52.316;21.166;2023-01-30T06:31:00;99257.78;;;5.50;58.29
34124;BME280;13153;52.316;21.166;2023-01-30T06:33:25;99261.03;;;5.41;58.45
34124;BME280;13153;52.316;21.166;2023-01-30T06:35:52;99250.66;;;5.44;58.07
34124;BME280;13153;52.316;21.166;2023-01-30T06:38:18;99244.66;;;5.47;58.59
34124;BME280;13153;52.316;21.166;2023-01-30T06:40:48;99251.66;;;5.48;58.59
34124;BME280;13153;52.316;21.166;2023-01-30T06:43:14;99256.09;;;5.52;58.32
34124;BME280;13153;52.316;21.166;2023-01-30T06:45:41;99252.84;;;5.59;58.13
34124;BME280;13153;52.316;21.166;2023-01-30T06:48:08;99251.03;;;5.56;58.08
34124;BME280;13153;52.316;21.166;2023-01-30T06:50:34;99244.75;;;5.50;57.92
34124;BME280;13153;52.316;21.166;2023-01-30T06:53:05;99236.03;;;5.49;57.72
34124;BME280;13153;52.316;21.166;2023-01-30T06:55:33;99222.03;;;5.46;57.85
34124;BME280;13153;52.316;21.166;2023-01-30T06:58:13;99202.00;;;5.45;57.96
34124;BME280;13153;52.316;21.166;2023-01-30T07:00:40;99220.31;;;5.46;57.36
34124;BME280;13153;52.316;21.166;2023-01-30T07:03:16;99219.53;;;5.50;57.87
34124;BME280;13153;52.316;21.166;2023-01-30T07:05:44;99223.00;;;5.49;57.27
34124;BME280;13153;52.316;21.166;2023-01-30T07:08:12;99222.78;;;5.42;57.39
34124;BME280;13153;52.316;21.166;2023-01-30T07:10:39;99212.47;;;5.46;56.77
34124;BME280;13153;52.316;21.166;2023-01-30T07:13:05;99203.94;;;5.52;56.90
34124;BME280;13153;52.316;21.166;2023-01-30T07:15:32;99200.41;;;5.50;56.91
34124;BME280;13153;52.316;21.166;2023-01-30T07:17:58;99196.16;;;5.53;56.69
34124;BME280;13153;52.316;21.166;2023-01-30T07:20:24;99196.03;;;5.49;56.68
34124;BME280;13153;52.316;21.166;2023-01-30T07:22:55;99199.47;;;5.48;56.99
34124;BME280;13153;52.316;21.166;2023-01-30T07:25:23;99185.47;;;5.44;56.30
34124;BME280;13153;52.316;21.166;2023-01-30T07:27:56;99182.13;;;5.50;56.90
34124;BME280;13153;52.316;21.166;2023-01-30T07:30:22;99191.84;;;5.55;56.88
34124;BME280;13153;52.316;21.166;2023-01-30T07:32:52;99184.13;;;5.58;56.52
34124;BME280;13153;52.316;21.166;2023-01-30T07:35:21;99174.47;;;5.56;56.48
34124;BME280;13153;52.316;21.166;2023-01-30T07:37:47;99169.09;;;5.50;57.02
34124;BME280;13153;52.316;21.166;2023-01-30T07:40:14;99165.66;;;5.51;57.30
34124;BME280;13153;52.316;21.166;2023-01-30T07:42:41;99161.03;;;5.41;57.89
34124;BME280;13153;52.316;21.166;2023-01-30T07:45:07;99151.19;;;5.30;58.71
34124;BME280;13153;52.316;21.166;2023-01-30T07:47:33;99145.09;;;5.30;58.96
34124;BME280;13153;52.316;21.166;2023-01-30T07:49:59;99150.03;;;5.21;58.83
34124;BME280;13153;52.316;21.166;2023-01-30T07:52:25;99144.78;;;5.18;59.32
34124;BME280;13153;52.316;21.166;2023-01-30T07:54:51;99141.25;;;5.16;59.62
34124;BME280;13153;52.316;21.166;2023-01-30T07:57:17;99144.03;;;5.23;60.05
34124;BME280;13153;52.316;21.166;2023-01-30T07:59:42;99143.88;;;5.17;59.91
34124;BME280;13153;52.316;21.166;2023-01-30T08:02:09;99133.34;;;5.13;59.93
34124;BME280;13153;52.316;21.166;2023-01-30T08:04:35;99142.97;;;5.15;60.15
34124;BME280;13153;52.316;21.166;2023-01-30T08:07:01;99133.19;;;5.08;60.28
34124;BME280;13153;52.316;21.166;2023-01-30T08:09:27;99132.09;;;5.00;60.90
34124;BME280;13153;52.316;21.166;2023-01-30T08:11:53;99133.34;;;4.83;61.72
34124;BME280;13153;52.316;21.166;2023-01-30T08:14:19;99131.75;;;4.88;61.53
34124;BME280;13153;52.316;21.166;2023-01-30T08:16:45;99128.47;;;4.95;61.35
34124;BME280;13153;52.316;21.166;2023-01-30T08:19:11;99123.41;;;5.00;61.30
34124;BME280;13153;52.316;21.166;2023-01-30T08:21:37;99111.47;;;5.08;61.82
34124;BME280;13153;52.316;21.166;2023-01-30T08:24:03;99100.06;;;5.04;61.42
34124;BME280;13153;52.316;21.166;2023-01-30T08:26:29;99099.28;;;5.07;61.72
34124;BME280;13153;52.316;21.166;2023-01-30T08:28:54;99104.34;;;5.02;61.16
34124;BME280;13153;52.316;21.166;2023-01-30T08:31:21;99101.66;;;4.99;61.71
34124;BME280;13153;52.316;21.166;2023-01-30T08:33:47;99107.81;;;5.01;61.60
34124;BME280;13153;52.316;21.166;2023-01-30T08:36:12;99099.84;;;4.96;61.48
34124;BME280;13153;52.316;21.166;2023-01-30T08:38:38;99113.28;;;4.80;61.83
34124;BME280;13153;52.316;21.166;2023-01-30T08:41:07;99086.78;;;4.95;61.98
34124;BME280;13153;52.316;21.166;2023-01-30T08:43:33;99111.75;;;4.87;62.41
34124;BME280;13153;52.316;21.166;2023-01-30T08:45:59;99115.19;;;4.86;61.79
34124;BME280;13153;52.316;21.166;2023-01-30T08:48:25;99099.44;;;4.81;62.41
34124;BME280;13153;52.316;21.166;2023-01-30T08:50:55;99105.78;;;4.91;62.76
34124;BME280;13153;52.316;21.166;2023-01-30T08:53:22;99101.09;;;4.79;62.57
34124;BME280;13153;52.316;21.166;2023-01-30T08:55:50;99100.22;;;4.79;62.51
34124;BME280;13153;52.316;21.166;2023-01-30T08:58:17;99087.19;;;4.79;62.63
34124;BME280;13153;52.316;21.166;2023-01-30T09:00:43;99081.34;;;4.87;62.72
34124;BME280;13153;52.316;21.166;2023-01-30T09:03:12;99071.81;;;4.88;62.82
34124;BME280;13153;52.316;21.166;2023-01-30T09:05:38;99069.28;;;4.91;62.10
34124;BME280;13153;52.316;21.166;2023-01-30T09:08:04;99059.00;;;4.95;62.26
34124;BME280;13153;52.316;21.166;2023-01-30T09:10:30;99061.81;;;5.03;62.04
34124;BME280;13153;52.316;21.166;2023-01-30T09:12:56;99048.63;;;4.97;62.22
34124;BME280;13153;52.316;21.166;2023-01-30T09:15:22;99054.63;;;4.94;62.20
34124;BME280;13153;52.316;21.166;2023-01-30T09:17:48;99051.31;;;5.00;62.35
34124;BME280;13153;52.316;21.166;2023-01-30T09:20:14;99034.78;;;5.00;62.00
34124;BME280;13153;52.316;21.166;2023-01-30T09:22:39;99032.22;;;5.01;62.25
34124;BME280;13153;52.316;21.166;2023-01-30T09:25:06;99029.75;;;5.06;62.40
34124;BME280;13153;52.316;21.166;2023-01-30T09:27:32;99031.53;;;5.08;61.96
34124;BME280;13153;52.316;21.166;2023-01-30T09:29:58;99017.66;;;5.09;61.62
34124;BME280;13153;52.316;21.166;2023-01-30T09:32:24;99021.84;;;5.03;61.82
34124;BME280;13153;52.316;21.166;2023-01-30T09:34:50;99019.16;;;5.00;62.34
34124;BME280;13153;52.316;21.166;2023-01-30T09:37:15;99024.38;;;5.00;62.34
34124;BME280;13153;52.316;21.166;2023-01-30T09:39:41;99020.13;;;5.03;61.90
34124;BME280;13153;52.316;21.166;2023-01-30T09:51:46;98979.94;;;4.95;62.43
34124;BME280;13153;52.316;21.166;2023-01-30T09:54:26;98984.19;;;4.91;62.29
34124;BME280;13153;52.316;21.166;2023-01-30T09:57:23;98977.25;;;4.92;62.40
34124;BME280;13153;52.316;21.166;2023-01-30T10:00:41;98978.88;;;4.88;62.56
34124;BME280;13153;52.316;21.166;2023-01-30T10:03:14;98972.91;;;4.92;62.79
34124;BME280;13153;52.316;21.166;2023-01-30T10:08:38;98965.09;;;4.92;62.92
34124;BME280;13153;52.316;21.166;2023-01-30T10:20:13;98948.28;;;5.14;62.63
34124;BME280;13153;52.316;21.166;2023-01-30T10:23:03;98938.84;;;5.19;62.62
34124;BME280;13153;52.316;21.166;2023-01-30T10:25:57;98930.03;;;5.14;62.56
34124;BME280;13153;52.316;21.166;2023-01-30T10:28:32;98931.00;;;5.18;62.98
34124;BME280;13153;52.316;21.166;2023-01-30T10:31:15;98925.06;;;5.25;62.66
34124;BME280;13153;52.316;21.166;2023-01-30T10:34:01;98921.44;;;5.18;62.71
34124;BME280;13153;52.316;21.166;2023-01-30T10:36:46;98925.63;;;5.12;62.95
34124;BME280;13153;52.316;21.166;2023-01-30T10:39:45;98917.63;;;5.04;63.31
34124;BME280;13153;52.316;21.166;2023-01-30T10:42:25;98917.66;;;5.06;63.79
34124;BME280;13153;52.316;21.166;2023-01-30T10:45:01;98914.22;;;5.07;63.46
34124;BME280;13153;52.316;21.166;2023-01-30T10:50:56;98899.50;;;5.09;64.28
34124;BME280;13153;52.316;21.166;2023-01-30T10:53:41;98896.19;;;5.16;64.44
34124;BME280;13153;52.316;21.166;2023-01-30T10:56:21;98893.63;;;5.17;63.92
34124;BME280;13153;52.316;21.166;2023-01-30T10:59:20;98900.38;;;5.09;64.11
34124;BME280;13153;52.316;21.166;2023-01-30T11:01:59;98902.28;;;5.16;64.40
34124;BME280;13153;52.316;21.166;2023-01-30T11:04:48;98888.34;;;5.14;64.01
34124;BME280;13153;52.316;21.166;2023-01-30T11:07:16;98896.22;;;5.17;64.07
34124;BME280;13153;52.316;21.166;2023-01-30T11:09:46;98881.53;;;5.22;64.53
34124;BME280;13153;52.316;21.166;2023-01-30T11:12:13;98873.75;;;5.24;64.11
34124;BME280;13153;52.316;21.166;2023-01-30T11:14:59;98869.56;;;5.30;64.42
34124;BME280;13153;52.316;21.166;2023-01-30T11:20:21;98858.56;;;5.44;64.08
34124;BME280;13153;52.316;21.166;2023-01-30T11:23:00;98849.66;;;5.34;63.83
34124;BME280;13153;52.316;21.166;2023-01-30T11:25:28;98855.03;;;5.42;63.77
34124;BME280;13153;52.316;21.166;2023-01-30T11:28:02;98855.19;;;5.48;63.54
34124;BME280;13153;52.316;21.166;2023-01-30T11:30:34;98863.91;;;5.50;63.14
34124;BME280;13153;52.316;21.166;2023-01-30T11:33:13;98847.25;;;5.43;63.46
34124;BME280;13153;52.316;21.166;2023-01-30T11:36:05;98853.22;;;5.38;63.56
34124;BME280;13153;52.316;21.166;2023-01-30T11:38:36;98848.13;;;5.44;63.89
34124;BME280;13153;52.316;21.166;2023-01-30T11:41:21;98841.16;;;5.43;63.84
34124;BME280;13153;52.316;21.166;2023-01-30T11:43:47;98840.22;;;5.39;64.08
34124;BME280;13153;52.316;21.166;2023-01-30T11:46:19;98849.94;;;5.46;64.15
34124;BME280;13153;52.316;21.166;2023-01-30T11:48:52;98839.69;;;5.55;63.68
34124;BME280;13153;52.316;21.166;2023-01-30T11:51:21;98843.25;;;5.59;64.10
34124;BME280;13153;52.316;21.166;2023-01-30T11:54:11;98826.81;;;5.63;63.92
34124;BME280;13153;52.316;21.166;2023-01-30T11:57:00;98839.94;;;5.66;63.82
34124;BME280;13153;52.316;21.166;2023-01-30T11:59:43;98828.78;;;5.73;63.76
34124;BME280;13153;52.316;21.166;2023-01-30T12:02:23;98820.03;;;5.71;63.75
34124;BME280;13153;52.316;21.166;2023-01-30T12:04:55;98806.81;;;5.63;63.33
34124;BME280;13153;52.316;21.166;2023-01-30T12:07:28;98813.81;;;5.64;63.61
34124;BME280;13153;52.316;21.166;2023-01-30T12:09:56;98812.16;;;5.70;63.86
34124;BME280;13153;52.316;21.166;2023-01-30T12:12:27;98807.94;;;5.75;63.54
34124;BME280;13153;52.316;21.166;2023-01-30T12:18:47;98802.63;;;5.70;63.71
34124;BME280;13153;52.316;21.166;2023-01-30T12:24:18;98795.63;;;5.69;63.56
34124;BME280;13153;52.316;21.166;2023-01-30T12:26:52;98802.56;;;5.67;63.70
34124;BME280;13153;52.316;21.166;2023-01-30T12:29:23;98806.00;;;5.66;63.76
34124;BME280;13153;52.316;21.166;2023-01-30T12:32:10;98803.47;;;5.69;63.90
34124;BME280;13153;52.316;21.166;2023-01-30T12:34:36;98798.22;;;5.68;63.76
34124;BME280;13153;52.316;21.166;2023-01-30T12:46:00;98805.47;;;5.84;63.68
34124;BME280;13153;52.316;21.166;2023-01-30T12:48:58;98788.94;;;5.83;63.78
34124;BME280;13153;52.316;21.166;2023-01-30T12:55:00;98789.91;;;5.88;63.67
34124;BME280;13153;52.316;21.166;2023-01-30T13:03:39;98789.16;;;5.92;63.82
34124;BME280;13153;52.316;21.166;2023-01-30T13:11:42;98784.81;;;5.93;63.54
34124;BME280;13153;52.316;21.166;2023-01-30T13:17:09;98781.50;;;6.02;63.61
34124;BME280;13153;52.316;21.166;2023-01-30T13:20:49;98785.78;;;5.98;63.63
34124;BME280;13153;52.316;21.166;2023-01-30T13:23:27;98778.97;;;6.06;63.73
34124;BME280;13153;52.316;21.166;2023-01-30T13:26:20;98785.75;;;5.96;63.57
34124;BME280;13153;52.316;21.166;2023-01-30T13:28:57;98775.44;;;6.04;64.08
34124;BME280;13153;52.316;21.166;2023-01-30T13:31:30;98771.97;;;6.04;63.78
34124;BME280;13153;52.316;21.166;2023-01-30T13:34:32;98766.78;;;6.07;63.59
34124;BME280;13153;52.316;21.166;2023-01-30T13:37:06;98771.06;;;6.03;63.77
34124;BME280;13153;52.316;21.166;2023-01-30T13:39:42;98769.38;;;6.05;63.95
34124;BME280;13153;52.316;21.166;2023-01-30T13:44:52;98782.41;;;6.04;64.16
34124;BME280;13153;52.316;21.166;2023-01-30T13:53:34;98769.56;;;6.16;64.12
34124;BME280;13153;52.316;21.166;2023-01-30T13:56:51;98766.00;;;6.11;64.30
34124;BME280;13153;52.316;21.166;2023-01-30T14:07:40;98793.13;;;6.19;64.74
34124;BME280;13153;52.316;21.166;2023-01-30T14:10:14;98797.34;;;6.12;64.56
34124;BME280;13153;52.316;21.166;2023-01-30T14:12:51;98788.63;;;6.10;64.77
34124;BME280;13153;52.316;21.166;2023-01-30T14:15:26;98791.22;;;6.10;64.87
34124;BME280;13153;52.316;21.166;2023-01-30T14:20:47;98806.16;;;6.17;64.79
34124;BME280;13153;52.316;21.166;2023-01-30T14:23:30;98788.81;;;6.21;64.70
34124;BME280;13153;52.316;21.166;2023-01-30T14:25:57;98792.34;;;6.24;64.38
34124;BME280;13153;52.316;21.166;2023-01-30T14:30:53;98811.47;;;6.22;64.59
34124;BME280;13153;52.316;21.166;2023-01-30T14:38:30;98815.84;;;6.24;65.07
34124;BME280;13153;52.316;21.166;2023-01-30T14:43:25;98802.03;;;6.30;64.64
34124;BME280;13153;52.316;21.166;2023-01-30T14:45:58;98802.13;;;6.35;64.60
34124;BME280;13153;52.316;21.166;2023-01-30T14:56:57;98816.97;;;6.40;64.06
34124;BME280;13153;52.316;21.166;2023-01-30T14:59:54;98806.47;;;6.37;64.14
34124;BME280;13153;52.316;21.166;2023-01-30T15:02:41;98812.63;;;6.39;64.41
34124;BME280;13153;52.316;21.166;2023-01-30T15:05:24;98811.78;;;6.42;64.19
34124;BME280;13153;52.316;21.166;2023-01-30T15:08:09;98816.19;;;6.44;63.75
34124;BME280;13153;52.316;21.166;2023-01-30T15:11:17;98811.03;;;6.47;63.92
34124;BME280;13153;52.316;21.166;2023-01-30T15:14:05;98810.06;;;6.42;63.51
34124;BME280;13153;52.316;21.166;2023-01-30T15:23:10;98816.13;;;6.41;63.97
34124;BME280;13153;52.316;21.166;2023-01-30T15:32:24;98838.78;;;6.42;64.34
34124;BME280;13153;52.316;21.166;2023-01-30T15:40:20;98830.91;;;6.39;64.43
34124;BME280;13153;52.316;21.166;2023-01-30T15:46:18;98825.81;;;6.47;64.38
34124;BME280;13153;52.316;21.166;2023-01-30T15:51:26;98828.34;;;6.42;64.14